Rodbyhavn, Denmark
Current Conditions -  °F | °C
As of 3:50 PM on Thursday 18 Dec 2014 (Local Time) from EDHK Reporting Station
Light Rain Light Rain  
Wind Chill: 50°   Ceiling: 300
Heat Index: 50°   Visibility: 1.2mi
Dew Point: 48°   Wind: 13mph
Humidity: 94%   Direction: 230°SW
Pressure: 29.53"   Gusts: NA
Location:  54.65°N, 11.35°E
Report Text: EDHK 181450Z 23011KT 2000 -RADZ BR OVC003 10/09 Q1000
Loading
Personal Weather Stations






























Interactive Weather Map New forecast layout! Learn more

10-Day Weather Forecast

Advertisements
Track Severe Weather on mobile